sensor_id;sensor_type;location;lat;lon;timestamp;P1;durP1;ratioP1;P2;durP2;ratioP2
57067;SDS011;43391;47.448;18.904;2023-07-13T00:02:04;9.27;;;4.97;;
57067;SDS011;43391;47.448;18.904;2023-07-13T00:04:30;8.98;;;4.90;;
57067;SDS011;43391;47.448;18.904;2023-07-13T00:06:55;7.75;;;4.97;;
57067;SDS011;43391;47.448;18.904;2023-07-13T00:09:21;8.77;;;4.70;;
57067;SDS011;43391;47.448;18.904;2023-07-13T00:11:50;12.20;;;4.43;;
57067;SDS011;43391;47.448;18.904;2023-07-13T00:14:20;6.60;;;3.90;;
57067;SDS011;43391;47.448;18.904;2023-07-13T00:16:47;7.97;;;3.85;;
57067;SDS011;43391;47.448;18.904;2023-07-13T00:19:12;9.88;;;4.00;;
57067;SDS011;43391;47.448;18.904;2023-07-13T00:21:39;8.25;;;3.63;;
57067;SDS011;43391;47.448;18.904;2023-07-13T00:24:06;5.00;;;2.92;;
57067;SDS011;43391;47.448;18.904;2023-07-13T00:26:32;6.82;;;2.92;;
57067;SDS011;43391;47.448;18.904;2023-07-13T00:28:58;7.47;;;3.13;;
57067;SDS011;43391;47.448;18.904;2023-07-13T00:31:23;5.97;;;3.17;;
57067;SDS011;43391;47.448;18.904;2023-07-13T00:33:49;3.08;;;2.55;;
57067;SDS011;43391;47.448;18.904;2023-07-13T00:36:14;4.95;;;2.25;;
57067;SDS011;43391;47.448;18.904;2023-07-13T00:38:39;7.82;;;2.72;;
57067;SDS011;43391;47.448;18.904;2023-07-13T00:41:05;7.05;;;2.60;;
57067;SDS011;43391;47.448;18.904;2023-07-13T00:43:31;6.63;;;2.85;;
57067;SDS011;43391;47.448;18.904;2023-07-13T00:48:43;2.75;;;2.30;;
57067;SDS011;43391;47.448;18.904;2023-07-13T00:51:10;4.33;;;3.07;;
57067;SDS011;43391;47.448;18.904;2023-07-13T00:53:36;4.38;;;2.55;;
57067;SDS011;43391;47.448;18.904;2023-07-13T00:56:01;3.80;;;2.50;;
57067;SDS011;43391;47.448;18.904;2023-07-13T00:58:28;3.58;;;2.60;;
57067;SDS011;43391;47.448;18.904;2023-07-13T01:00:54;5.15;;;2.10;;
57067;SDS011;43391;47.448;18.904;2023-07-13T01:03:19;3.67;;;2.30;;
57067;SDS011;43391;47.448;18.904;2023-07-13T01:05:46;5.70;;;2.83;;
57067;SDS011;43391;47.448;18.904;2023-07-13T01:08:13;4.60;;;2.38;;
57067;SDS011;43391;47.448;18.904;2023-07-13T01:10:38;3.47;;;2.58;;
57067;SDS011;43391;47.448;18.904;2023-07-13T01:13:05;6.00;;;2.83;;
57067;SDS011;43391;47.448;18.904;2023-07-13T01:15:40;6.68;;;2.42;;
57067;SDS011;43391;47.448;18.904;2023-07-13T01:18:11;3.72;;;2.03;;
57067;SDS011;43391;47.448;18.904;2023-07-13T01:20:39;3.85;;;2.08;;
57067;SDS011;43391;47.448;18.904;2023-07-13T01:23:07;4.72;;;2.40;;
57067;SDS011;43391;47.448;18.904;2023-07-13T01:28:01;3.47;;;2.28;;
57067;SDS011;43391;47.448;18.904;2023-07-13T01:30:27;3.17;;;2.42;;
57067;SDS011;43391;47.448;18.904;2023-07-13T01:32:52;8.27;;;2.60;;
57067;SDS011;43391;47.448;18.904;2023-07-13T01:35:17;5.85;;;2.88;;
57067;SDS011;43391;47.448;18.904;2023-07-13T01:37:43;7.43;;;2.90;;
57067;SDS011;43391;47.448;18.904;2023-07-13T01:40:10;6.18;;;2.85;;
57067;SDS011;43391;47.448;18.904;2023-07-13T01:42:37;8.57;;;3.35;;
57067;SDS011;43391;47.448;18.904;2023-07-13T01:45:03;5.80;;;3.42;;
57067;SDS011;43391;47.448;18.904;2023-07-13T01:47:29;11.48;;;3.55;;
57067;SDS011;43391;47.448;18.904;2023-07-13T01:49:55;6.38;;;3.50;;
57067;SDS011;43391;47.448;18.904;2023-07-13T01:52:21;7.85;;;3.55;;
57067;SDS011;43391;47.448;18.904;2023-07-13T01:54:47;7.82;;;4.03;;
57067;SDS011;43391;47.448;18.904;2023-07-13T01:57:12;9.73;;;3.53;;
57067;SDS011;43391;47.448;18.904;2023-07-13T01:59:37;8.88;;;3.88;;
57067;SDS011;43391;47.448;18.904;2023-07-13T02:02:03;7.53;;;3.80;;
57067;SDS011;43391;47.448;18.904;2023-07-13T02:04:28;5.63;;;3.90;;
57067;SDS011;43391;47.448;18.904;2023-07-13T02:06:54;7.75;;;4.28;;
57067;SDS011;43391;47.448;18.904;2023-07-13T02:09:20;5.88;;;3.50;;
57067;SDS011;43391;47.448;18.904;2023-07-13T02:11:45;7.00;;;4.05;;
57067;SDS011;43391;47.448;18.904;2023-07-13T02:14:11;7.38;;;3.55;;
57067;SDS011;43391;47.448;18.904;2023-07-13T02:16:36;6.40;;;2.78;;
57067;SDS011;43391;47.448;18.904;2023-07-13T02:19:02;7.00;;;3.10;;
57067;SDS011;43391;47.448;18.904;2023-07-13T02:21:27;7.82;;;2.65;;
57067;SDS011;43391;47.448;18.904;2023-07-13T02:23:53;5.05;;;2.70;;
57067;SDS011;43391;47.448;18.904;2023-07-13T02:26:19;6.75;;;2.92;;
57067;SDS011;43391;47.448;18.904;2023-07-13T02:28:44;5.32;;;2.63;;
57067;SDS011;43391;47.448;18.904;2023-07-13T02:31:11;10.13;;;3.00;;
57067;SDS011;43391;47.448;18.904;2023-07-13T02:33:38;4.38;;;3.05;;
57067;SDS011;43391;47.448;18.904;2023-07-13T02:36:04;3.50;;;2.35;;
57067;SDS011;43391;47.448;18.904;2023-07-13T02:38:33;7.40;;;2.70;;
57067;SDS011;43391;47.448;18.904;2023-07-13T02:41:00;5.88;;;2.75;;
57067;SDS011;43391;47.448;18.904;2023-07-13T02:43:26;6.65;;;2.92;;
57067;SDS011;43391;47.448;18.904;2023-07-13T02:45:52;6.55;;;2.92;;
57067;SDS011;43391;47.448;18.904;2023-07-13T02:48:17;3.90;;;2.67;;
57067;SDS011;43391;47.448;18.904;2023-07-13T02:50:43;7.80;;;3.05;;
57067;SDS011;43391;47.448;18.904;2023-07-13T02:53:10;8.48;;;3.45;;
57067;SDS011;43391;47.448;18.904;2023-07-13T02:55:35;5.30;;;3.47;;
57067;SDS011;43391;47.448;18.904;2023-07-13T02:58:01;5.25;;;3.08;;
57067;SDS011;43391;47.448;18.904;2023-07-13T03:00:26;6.00;;;3.15;;
57067;SDS011;43391;47.448;18.904;2023-07-13T03:02:52;8.70;;;3.50;;
57067;SDS011;43391;47.448;18.904;2023-07-13T03:05:18;5.68;;;3.25;;
57067;SDS011;43391;47.448;18.904;2023-07-13T03:07:43;7.30;;;3.97;;
57067;SDS011;43391;47.448;18.904;2023-07-13T03:10:09;6.95;;;4.30;;
57067;SDS011;43391;47.448;18.904;2023-07-13T03:12:35;7.72;;;3.97;;
57067;SDS011;43391;47.448;18.904;2023-07-13T03:15:00;8.63;;;3.75;;
57067;SDS011;43391;47.448;18.904;2023-07-13T03:17:25;8.73;;;4.10;;
57067;SDS011;43391;47.448;18.904;2023-07-13T03:19:51;7.47;;;4.38;;
57067;SDS011;43391;47.448;18.904;2023-07-13T03:22:17;7.50;;;4.32;;
57067;SDS011;43391;47.448;18.904;2023-07-13T03:24:43;10.52;;;4.80;;
57067;SDS011;43391;47.448;18.904;2023-07-13T03:27:09;10.13;;;4.40;;
57067;SDS011;43391;47.448;18.904;2023-07-13T03:29:34;9.38;;;5.10;;
57067;SDS011;43391;47.448;18.904;2023-07-13T03:31:59;8.43;;;5.18;;
57067;SDS011;43391;47.448;18.904;2023-07-13T03:34:25;11.40;;;4.95;;
57067;SDS011;43391;47.448;18.904;2023-07-13T03:36:53;12.10;;;5.28;;
57067;SDS011;43391;47.448;18.904;2023-07-13T03:41:45;9.73;;;4.88;;
57067;SDS011;43391;47.448;18.904;2023-07-13T03:44:10;8.68;;;5.00;;
57067;SDS011;43391;47.448;18.904;2023-07-13T03:46:36;7.90;;;4.53;;
57067;SDS011;43391;47.448;18.904;2023-07-13T03:49:03;12.45;;;5.22;;
57067;SDS011;43391;47.448;18.904;2023-07-13T03:51:29;8.65;;;4.72;;
57067;SDS011;43391;47.448;18.904;2023-07-13T03:53:55;10.77;;;5.78;;
57067;SDS011;43391;47.448;18.904;2023-07-13T03:56:21;9.02;;;5.25;;
57067;SDS011;43391;47.448;18.904;2023-07-13T03:58:47;7.75;;;4.75;;
57067;SDS011;43391;47.448;18.904;2023-07-13T04:01:14;8.43;;;5.18;;
57067;SDS011;43391;47.448;18.904;2023-07-13T04:03:41;9.02;;;4.88;;
57067;SDS011;43391;47.448;18.904;2023-07-13T04:06:08;10.90;;;5.32;;
57067;SDS011;43391;47.448;18.904;2023-07-13T04:08:40;8.88;;;5.20;;
57067;SDS011;43391;47.448;18.904;2023-07-13T04:11:06;8.05;;;4.75;;
57067;SDS011;43391;47.448;18.904;2023-07-13T04:13:32;10.48;;;5.55;;
57067;SDS011;43391;47.448;18.904;2023-07-13T04:15:57;8.18;;;5.15;;
57067;SDS011;43391;47.448;18.904;2023-07-13T04:18:22;8.48;;;4.93;;
57067;SDS011;43391;47.448;18.904;2023-07-13T04:20:48;12.02;;;5.32;;
57067;SDS011;43391;47.448;18.904;2023-07-13T04:23:18;12.18;;;5.85;;
57067;SDS011;43391;47.448;18.904;2023-07-13T04:25:44;9.82;;;5.53;;
57067;SDS011;43391;47.448;18.904;2023-07-13T04:28:11;12.45;;;6.03;;
57067;SDS011;43391;47.448;18.904;2023-07-13T04:30:37;8.60;;;6.00;;
57067;SDS011;43391;47.448;18.904;2023-07-13T04:33:02;8.90;;;5.55;;
57067;SDS011;43391;47.448;18.904;2023-07-13T04:35:27;11.35;;;5.88;;
57067;SDS011;43391;47.448;18.904;2023-07-13T04:37:53;8.35;;;5.10;;
57067;SDS011;43391;47.448;18.904;2023-07-13T04:40:18;10.88;;;5.63;;
57067;SDS011;43391;47.448;18.904;2023-07-13T04:42:44;12.75;;;5.88;;
57067;SDS011;43391;47.448;18.904;2023-07-13T04:45:10;10.07;;;5.72;;
57067;SDS011;43391;47.448;18.904;2023-07-13T04:47:37;10.63;;;5.82;;
57067;SDS011;43391;47.448;18.904;2023-07-13T04:50:02;9.43;;;6.60;;
57067;SDS011;43391;47.448;18.904;2023-07-13T04:52:28;9.63;;;6.22;;
57067;SDS011;43391;47.448;18.904;2023-07-13T04:54:53;11.98;;;6.57;;
57067;SDS011;43391;47.448;18.904;2023-07-13T04:57:19;9.40;;;6.72;;
57067;SDS011;43391;47.448;18.904;2023-07-13T04:59:44;11.63;;;6.97;;
57067;SDS011;43391;47.448;18.904;2023-07-13T05:02:09;16.58;;;8.40;;
57067;SDS011;43391;47.448;18.904;2023-07-13T05:04:35;16.33;;;7.32;;
57067;SDS011;43391;47.448;18.904;2023-07-13T05:07:00;12.95;;;7.28;;
57067;SDS011;43391;47.448;18.904;2023-07-13T05:09:26;17.80;;;7.75;;
57067;SDS011;43391;47.448;18.904;2023-07-13T05:11:51;15.35;;;7.22;;
57067;SDS011;43391;47.448;18.904;2023-07-13T05:14:17;19.40;;;8.38;;
57067;SDS011;43391;47.448;18.904;2023-07-13T05:16:42;13.35;;;7.57;;
57067;SDS011;43391;47.448;18.904;2023-07-13T05:19:08;12.40;;;7.28;;
57067;SDS011;43391;47.448;18.904;2023-07-13T05:21:34;14.82;;;8.25;;
57067;SDS011;43391;47.448;18.904;2023-07-13T05:23:59;8.60;;;5.78;;
57067;SDS011;43391;47.448;18.904;2023-07-13T05:26:25;14.52;;;6.57;;
57067;SDS011;43391;47.448;18.904;2023-07-13T05:28:50;9.07;;;5.50;;
57067;SDS011;43391;47.448;18.904;2023-07-13T05:31:15;11.80;;;6.00;;
57067;SDS011;43391;47.448;18.904;2023-07-13T05:33:41;8.07;;;5.43;;
57067;SDS011;43391;47.448;18.904;2023-07-13T05:36:06;10.10;;;4.78;;
57067;SDS011;43391;47.448;18.904;2023-07-13T05:38:32;8.32;;;4.65;;
57067;SDS011;43391;47.448;18.904;2023-07-13T05:40:57;9.88;;;5.55;;
57067;SDS011;43391;47.448;18.904;2023-07-13T05:43:23;10.90;;;4.82;;
57067;SDS011;43391;47.448;18.904;2023-07-13T05:45:49;9.02;;;5.25;;
57067;SDS011;43391;47.448;18.904;2023-07-13T05:48:18;8.65;;;5.07;;
57067;SDS011;43391;47.448;18.904;2023-07-13T05:50:43;7.95;;;5.05;;
57067;SDS011;43391;47.448;18.904;2023-07-13T05:53:09;12.43;;;5.35;;
57067;SDS011;43391;47.448;18.904;2023-07-13T05:55:34;11.55;;;4.97;;
57067;SDS011;43391;47.448;18.904;2023-07-13T05:58:00;13.18;;;5.70;;
57067;SDS011;43391;47.448;18.904;2023-07-13T06:00:25;10.43;;;5.60;;
57067;SDS011;43391;47.448;18.904;2023-07-13T06:02:51;9.75;;;5.20;;
57067;SDS011;43391;47.448;18.904;2023-07-13T06:05:16;6.82;;;4.93;;
57067;SDS011;43391;47.448;18.904;2023-07-13T06:07:42;6.40;;;4.28;;
57067;SDS011;43391;47.448;18.904;2023-07-13T06:10:07;8.05;;;4.47;;
57067;SDS011;43391;47.448;18.904;2023-07-13T06:12:33;7.55;;;5.03;;
57067;SDS011;43391;47.448;18.904;2023-07-13T06:14:58;7.88;;;4.18;;
57067;SDS011;43391;47.448;18.904;2023-07-13T06:17:23;6.40;;;4.10;;
57067;SDS011;43391;47.448;18.904;2023-07-13T06:19:49;7.75;;;3.88;;
57067;SDS011;43391;47.448;18.904;2023-07-13T06:22:14;5.45;;;4.18;;
57067;SDS011;43391;47.448;18.904;2023-07-13T06:24:39;7.85;;;4.43;;
57067;SDS011;43391;47.448;18.904;2023-07-13T06:27:05;5.90;;;3.72;;
57067;SDS011;43391;47.448;18.904;2023-07-13T06:29:30;5.40;;;3.33;;
57067;SDS011;43391;47.448;18.904;2023-07-13T06:31:56;3.55;;;3.22;;
57067;SDS011;43391;47.448;18.904;2023-07-13T06:34:22;5.10;;;3.30;;
57067;SDS011;43391;47.448;18.904;2023-07-13T06:36:47;6.35;;;3.67;;
57067;SDS011;43391;47.448;18.904;2023-07-13T06:39:12;5.70;;;3.60;;
57067;SDS011;43391;47.448;18.904;2023-07-13T06:41:38;4.57;;;3.60;;
57067;SDS011;43391;47.448;18.904;2023-07-13T06:44:04;4.38;;;3.28;;
57067;SDS011;43391;47.448;18.904;2023-07-13T06:46:29;8.23;;;3.30;;
57067;SDS011;43391;47.448;18.904;2023-07-13T06:48:55;5.63;;;3.35;;
57067;SDS011;43391;47.448;18.904;2023-07-13T06:51:21;5.13;;;3.63;;
57067;SDS011;43391;47.448;18.904;2023-07-13T06:53:46;7.10;;;3.90;;
57067;SDS011;43391;47.448;18.904;2023-07-13T06:56:12;7.18;;;3.80;;
57067;SDS011;43391;47.448;18.904;2023-07-13T06:58:37;6.07;;;4.15;;
57067;SDS011;43391;47.448;18.904;2023-07-13T07:01:03;4.97;;;3.40;;
57067;SDS011;43391;47.448;18.904;2023-07-13T07:03:29;5.68;;;3.47;;
57067;SDS011;43391;47.448;18.904;2023-07-13T07:08:41;5.18;;;4.03;;
57067;SDS011;43391;47.448;18.904;2023-07-13T07:11:13;5.05;;;3.67;;
57067;SDS011;43391;47.448;18.904;2023-07-13T07:13:45;7.93;;;4.13;;
57067;SDS011;43391;47.448;18.904;2023-07-13T07:16:11;6.22;;;4.03;;
57067;SDS011;43391;47.448;18.904;2023-07-13T07:18:36;6.82;;;3.97;;
57067;SDS011;43391;47.448;18.904;2023-07-13T07:21:02;4.97;;;3.80;;
57067;SDS011;43391;47.448;18.904;2023-07-13T07:23:29;7.38;;;3.60;;
57067;SDS011;43391;47.448;18.904;2023-07-13T07:25:55;8.13;;;4.13;;
57067;SDS011;43391;47.448;18.904;2023-07-13T07:28:20;5.25;;;3.92;;
57067;SDS011;43391;47.448;18.904;2023-07-13T07:30:46;7.38;;;4.28;;
57067;SDS011;43391;47.448;18.904;2023-07-13T07:33:13;7.65;;;4.60;;
57067;SDS011;43391;47.448;18.904;2023-07-13T07:35:39;3.85;;;3.38;;
57067;SDS011;43391;47.448;18.904;2023-07-13T07:38:04;5.88;;;4.40;;
57067;SDS011;43391;47.448;18.904;2023-07-13T07:40:30;8.00;;;4.40;;
57067;SDS011;43391;47.448;18.904;2023-07-13T07:42:56;9.43;;;4.60;;
57067;SDS011;43391;47.448;18.904;2023-07-13T07:45:21;5.20;;;4.03;;
57067;SDS011;43391;47.448;18.904;2023-07-13T07:47:47;5.68;;;3.88;;
57067;SDS011;43391;47.448;18.904;2023-07-13T07:50:12;5.22;;;3.13;;
57067;SDS011;43391;47.448;18.904;2023-07-13T07:52:38;5.93;;;3.05;;
57067;SDS011;43391;47.448;18.904;2023-07-13T07:55:04;6.28;;;3.00;;
57067;SDS011;43391;47.448;18.904;2023-07-13T07:57:31;8.00;;;3.13;;
57067;SDS011;43391;47.448;18.904;2023-07-13T07:59:57;6.28;;;3.22;;
57067;SDS011;43391;47.448;18.904;2023-07-13T08:02:22;7.43;;;2.85;;
57067;SDS011;43391;47.448;18.904;2023-07-13T08:04:47;3.83;;;3.30;;
57067;SDS011;43391;47.448;18.904;2023-07-13T08:07:13;8.25;;;3.20;;
57067;SDS011;43391;47.448;18.904;2023-07-13T08:09:38;4.72;;;3.28;;
57067;SDS011;43391;47.448;18.904;2023-07-13T08:12:03;4.88;;;3.15;;
57067;SDS011;43391;47.448;18.904;2023-07-13T08:14:29;3.58;;;3.22;;
57067;SDS011;43391;47.448;18.904;2023-07-13T08:16:54;4.80;;;2.58;;
57067;SDS011;43391;47.448;18.904;2023-07-13T08:19:20;3.35;;;2.80;;
57067;SDS011;43391;47.448;18.904;2023-07-13T08:21:45;3.80;;;3.10;;
57067;SDS011;43391;47.448;18.904;2023-07-13T08:24:13;5.27;;;2.90;;
57067;SDS011;43391;47.448;18.904;2023-07-13T08:26:38;4.10;;;3.00;;
57067;SDS011;43391;47.448;18.904;2023-07-13T08:29:04;6.28;;;3.50;;
57067;SDS011;43391;47.448;18.904;2023-07-13T08:31:29;3.75;;;3.15;;
57067;SDS011;43391;47.448;18.904;2023-07-13T08:33:55;7.55;;;3.72;;
57067;SDS011;43391;47.448;18.904;2023-07-13T08:36:20;5.38;;;3.17;;
57067;SDS011;43391;47.448;18.904;2023-07-13T08:38:45;3.95;;;3.00;;
57067;SDS011;43391;47.448;18.904;2023-07-13T08:41:12;6.03;;;2.70;;
57067;SDS011;43391;47.448;18.904;2023-07-13T08:43:39;5.15;;;3.25;;
57067;SDS011;43391;47.448;18.904;2023-07-13T08:46:15;5.18;;;2.88;;
57067;SDS011;43391;47.448;18.904;2023-07-13T08:49:02;8.38;;;3.40;;
57067;SDS011;43391;47.448;18.904;2023-07-13T08:51:41;4.32;;;3.30;;
57067;SDS011;43391;47.448;18.904;2023-07-13T08:54:21;6.50;;;3.22;;
57067;SDS011;43391;47.448;18.904;2023-07-13T08:56:48;5.20;;;3.55;;
57067;SDS011;43391;47.448;18.904;2023-07-13T08:59:18;6.30;;;3.97;;
57067;SDS011;43391;47.448;18.904;2023-07-13T09:04:50;7.13;;;3.88;;
57067;SDS011;43391;47.448;18.904;2023-07-13T09:10:23;6.43;;;4.28;;
57067;SDS011;43391;47.448;18.904;2023-07-13T09:15:45;5.90;;;3.63;;
57067;SDS011;43391;47.448;18.904;2023-07-13T09:21:05;5.05;;;3.75;;
57067;SDS011;43391;47.448;18.904;2023-07-13T09:23:35;5.95;;;3.72;;
57067;SDS011;43391;47.448;18.904;2023-07-13T09:26:20;6.18;;;3.90;;
57067;SDS011;43391;47.448;18.904;2023-07-13T09:28:48;5.18;;;3.30;;
57067;SDS011;43391;47.448;18.904;2023-07-13T09:31:19;6.40;;;4.00;;
57067;SDS011;43391;47.448;18.904;2023-07-13T09:33:56;5.32;;;3.80;;
57067;SDS011;43391;47.448;18.904;2023-07-13T09:36:25;8.25;;;3.70;;
57067;SDS011;43391;47.448;18.904;2023-07-13T09:39:02;6.30;;;3.75;;
57067;SDS011;43391;47.448;18.904;2023-07-13T09:44:31;3.80;;;3.25;;
57067;SDS011;43391;47.448;18.904;2023-07-13T09:47:00;4.47;;;3.00;;
57067;SDS011;43391;47.448;18.904;2023-07-13T09:49:27;5.38;;;3.08;;
57067;SDS011;43391;47.448;18.904;2023-07-13T09:51:59;5.65;;;3.20;;
57067;SDS011;43391;47.448;18.904;2023-07-13T09:54:27;3.60;;;3.03;;
57067;SDS011;43391;47.448;18.904;2023-07-13T09:56:56;5.15;;;3.38;;
57067;SDS011;43391;47.448;18.904;2023-07-13T09:59:23;4.18;;;3.25;;
57067;SDS011;43391;47.448;18.904;2023-07-13T10:01:54;8.95;;;6.40;;
57067;SDS011;43391;47.448;18.904;2023-07-13T10:04:22;6.97;;;4.25;;
57067;SDS011;43391;47.448;18.904;2023-07-13T10:06:52;4.40;;;3.30;;
57067;SDS011;43391;47.448;18.904;2023-07-13T10:09:30;6.30;;;3.58;;
57067;SDS011;43391;47.448;18.904;2023-07-13T10:11:56;4.15;;;3.10;;
57067;SDS011;43391;47.448;18.904;2023-07-13T10:14:21;6.60;;;3.15;;
57067;SDS011;43391;47.448;18.904;2023-07-13T10:16:52;3.78;;;2.90;;
57067;SDS011;43391;47.448;18.904;2023-07-13T10:19:25;5.90;;;3.55;;
57067;SDS011;43391;47.448;18.904;2023-07-13T10:21:57;5.93;;;3.58;;
57067;SDS011;43391;47.448;18.904;2023-07-13T10:24:30;5.78;;;3.55;;
57067;SDS011;43391;47.448;18.904;2023-07-13T10:27:00;4.43;;;2.83;;
57067;SDS011;43391;47.448;18.904;2023-07-13T10:29:32;3.33;;;3.03;;
57067;SDS011;43391;47.448;18.904;2023-07-13T10:32:02;7.05;;;3.17;;
57067;SDS011;43391;47.448;18.904;2023-07-13T10:34:33;4.45;;;3.00;;
57067;SDS011;43391;47.448;18.904;2023-07-13T10:36:59;3.65;;;3.05;;
57067;SDS011;43391;47.448;18.904;2023-07-13T10:39:27;3.70;;;2.80;;
57067;SDS011;43391;47.448;18.904;2023-07-13T10:41:54;4.30;;;3.15;;
57067;SDS011;43391;47.448;18.904;2023-07-13T10:44:24;4.13;;;3.03;;
57067;SDS011;43391;47.448;18.904;2023-07-13T10:46:54;5.55;;;3.00;;
57067;SDS011;43391;47.448;18.904;2023-07-13T10:49:22;4.30;;;2.78;;
57067;SDS011;43391;47.448;18.904;2023-07-13T10:51:48;2.80;;;2.60;;
57067;SDS011;43391;47.448;18.904;2023-07-13T10:54:18;4.63;;;3.20;;
57067;SDS011;43391;47.448;18.904;2023-07-13T10:56:48;3.28;;;2.67;;
57067;SDS011;43391;47.448;18.904;2023-07-13T10:59:17;5.43;;;3.10;;
57067;SDS011;43391;47.448;18.904;2023-07-13T11:04:31;3.20;;;2.70;;
57067;SDS011;43391;47.448;18.904;2023-07-13T11:07:22;3.78;;;3.22;;
57067;SDS011;43391;47.448;18.904;2023-07-13T11:10:09;5.28;;;3.17;;
57067;SDS011;43391;47.448;18.904;2023-07-13T11:13:35;5.10;;;3.20;;
57067;SDS011;43391;47.448;18.904;2023-07-13T11:16:48;4.97;;;3.13;;
57067;SDS011;43391;47.448;18.904;2023-07-13T11:18:52;3.78;;;2.97;;
57067;SDS011;43391;47.448;18.904;2023-07-13T11:21:27;4.95;;;3.20;;
57067;SDS011;43391;47.448;18.904;2023-07-13T11:32:20;4.88;;;3.35;;
57067;SDS011;43391;47.448;18.904;2023-07-13T11:34:48;4.80;;;3.38;;
57067;SDS011;43391;47.448;18.904;2023-07-13T11:37:15;3.92;;;3.13;;
57067;SDS011;43391;47.448;18.904;2023-07-13T11:39:43;8.18;;;3.50;;
57067;SDS011;43391;47.448;18.904;2023-07-13T11:42:16;3.85;;;2.85;;
57067;SDS011;43391;47.448;18.904;2023-07-13T11:44:47;4.70;;;2.75;;
57067;SDS011;43391;47.448;18.904;2023-07-13T11:47:18;4.78;;;3.30;;
57067;SDS011;43391;47.448;18.904;2023-07-13T11:49:48;4.78;;;3.30;;
57067;SDS011;43391;47.448;18.904;2023-07-13T11:52:17;4.57;;;3.20;;
57067;SDS011;43391;47.448;18.904;2023-07-13T11:54:48;7.43;;;3.40;;
57067;SDS011;43391;47.448;18.904;2023-07-13T11:59:48;6.80;;;3.28;;
57067;SDS011;43391;47.448;18.904;2023-07-13T12:02:18;5.28;;;3.25;;
57067;SDS011;43391;47.448;18.904;2023-07-13T12:04:54;7.05;;;3.20;;
57067;SDS011;43391;47.448;18.904;2023-07-13T12:07:20;5.25;;;3.20;;
57067;SDS011;43391;47.448;18.904;2023-07-13T12:09:45;5.90;;;3.58;;
57067;SDS011;43391;47.448;18.904;2023-07-13T12:12:15;5.28;;;3.35;;
57067;SDS011;43391;47.448;18.904;2023-07-13T12:14:43;4.90;;;3.25;;
57067;SDS011;43391;47.448;18.904;2023-07-13T12:17:18;4.80;;;3.40;;
57067;SDS011;43391;47.448;18.904;2023-07-13T12:19:47;7.00;;;3.78;;
57067;SDS011;43391;47.448;18.904;2023-07-13T12:22:14;9.55;;;3.75;;
57067;SDS011;43391;47.448;18.904;2023-07-13T12:24:43;5.03;;;3.58;;
57067;SDS011;43391;47.448;18.904;2023-07-13T12:27:19;7.35;;;3.60;;
57067;SDS011;43391;47.448;18.904;2023-07-13T12:33:00;7.93;;;4.28;;
57067;SDS011;43391;47.448;18.904;2023-07-13T12:35:44;4.63;;;3.83;;
57067;SDS011;43391;47.448;18.904;2023-07-13T12:38:12;4.20;;;3.78;;
57067;SDS011;43391;47.448;18.904;2023-07-13T12:40:39;6.25;;;4.18;;
57067;SDS011;43391;47.448;18.904;2023-07-13T12:43:09;6.45;;;4.03;;
57067;SDS011;43391;47.448;18.904;2023-07-13T12:45:37;4.25;;;3.50;;
57067;SDS011;43391;47.448;18.904;2023-07-13T12:48:04;5.82;;;3.55;;
57067;SDS011;43391;47.448;18.904;2023-07-13T12:50:39;5.97;;;3.78;;
57067;SDS011;43391;47.448;18.904;2023-07-13T12:53:15;6.95;;;3.85;;
57067;SDS011;43391;47.448;18.904;2023-07-13T12:55:54;5.53;;;3.65;;
57067;SDS011;43391;47.448;18.904;2023-07-13T12:58:26;5.55;;;3.90;;
57067;SDS011;43391;47.448;18.904;2023-07-13T13:00:54;4.03;;;3.60;;
57067;SDS011;43391;47.448;18.904;2023-07-13T13:05:46;5.40;;;3.63;;
57067;SDS011;43391;47.448;18.904;2023-07-13T13:08:12;5.05;;;3.25;;
57067;SDS011;43391;47.448;18.904;2023-07-13T13:10:37;4.65;;;3.70;;
57067;SDS011;43391;47.448;18.904;2023-07-13T13:13:04;5.78;;;3.17;;
57067;SDS011;43391;47.448;18.904;2023-07-13T13:15:29;4.85;;;3.42;;
57067;SDS011;43391;47.448;18.904;2023-07-13T13:17:55;5.85;;;2.97;;
57067;SDS011;43391;47.448;18.904;2023-07-13T13:20:21;5.15;;;3.60;;
57067;SDS011;43391;47.448;18.904;2023-07-13T13:22:47;4.97;;;3.35;;
57067;SDS011;43391;47.448;18.904;2023-07-13T13:25:13;4.97;;;3.35;;
57067;SDS011;43391;47.448;18.904;2023-07-13T13:27:43;4.68;;;3.17;;
57067;SDS011;43391;47.448;18.904;2023-07-13T13:30:16;6.70;;;3.13;;
57067;SDS011;43391;47.448;18.904;2023-07-13T13:32:44;6.93;;;3.70;;
57067;SDS011;43391;47.448;18.904;2023-07-13T13:35:14;7.80;;;3.65;;
57067;SDS011;43391;47.448;18.904;2023-07-13T13:37:42;6.95;;;3.75;;
57067;SDS011;43391;47.448;18.904;2023-07-13T13:40:18;4.88;;;3.15;;
57067;SDS011;43391;47.448;18.904;2023-07-13T13:42:49;5.85;;;3.50;;
57067;SDS011;43391;47.448;18.904;2023-07-13T13:45:16;5.32;;;3.30;;
57067;SDS011;43391;47.448;18.904;2023-07-13T13:47:43;6.07;;;3.05;;
57067;SDS011;43391;47.448;18.904;2023-07-13T13:50:12;4.78;;;3.10;;
57067;SDS011;43391;47.448;18.904;2023-07-13T13:52:39;6.45;;;3.45;;
57067;SDS011;43391;47.448;18.904;2023-07-13T13:55:14;3.83;;;3.22;;
57067;SDS011;43391;47.448;18.904;2023-07-13T13:57:41;3.92;;;3.33;;
57067;SDS011;43391;47.448;18.904;2023-07-13T14:00:10;6.35;;;3.22;;
57067;SDS011;43391;47.448;18.904;2023-07-13T14:02:39;4.78;;;3.47;;
57067;SDS011;43391;47.448;18.904;2023-07-13T14:05:06;7.72;;;3.22;;
57067;SDS011;43391;47.448;18.904;2023-07-13T14:07:36;6.40;;;3.40;;
57067;SDS011;43391;47.448;18.904;2023-07-13T14:10:08;6.35;;;3.92;;
57067;SDS011;43391;47.448;18.904;2023-07-13T14:12:36;5.65;;;3.35;;
57067;SDS011;43391;47.448;18.904;2023-07-13T14:15:02;5.65;;;3.50;;
57067;SDS011;43391;47.448;18.904;2023-07-13T14:17:27;5.65;;;3.40;;
57067;SDS011;43391;47.448;18.904;2023-07-13T14:19:53;5.70;;;3.85;;
57067;SDS011;43391;47.448;18.904;2023-07-13T14:22:25;6.97;;;3.28;;
57067;SDS011;43391;47.448;18.904;2023-07-13T14:24:51;6.50;;;3.17;;
57067;SDS011;43391;47.448;18.904;2023-07-13T14:27:18;6.40;;;4.20;;
57067;SDS011;43391;47.448;18.904;2023-07-13T14:29:43;6.95;;;3.50;;
57067;SDS011;43391;47.448;18.904;2023-07-13T14:32:10;5.32;;;3.50;;
57067;SDS011;43391;47.448;18.904;2023-07-13T14:34:37;5.35;;;3.42;;
57067;SDS011;43391;47.448;18.904;2023-07-13T14:37:02;4.10;;;3.70;;
57067;SDS011;43391;47.448;18.904;2023-07-13T14:39:29;10.57;;;6.57;;
57067;SDS011;43391;47.448;18.904;2023-07-13T14:41:56;6.15;;;4.65;;
57067;SDS011;43391;47.448;18.904;2023-07-13T14:44:29;4.55;;;3.55;;
57067;SDS011;43391;47.448;18.904;2023-07-13T14:46:59;6.28;;;3.63;;
57067;SDS011;43391;47.448;18.904;2023-07-13T14:49:39;5.72;;;3.47;;
57067;SDS011;43391;47.448;18.904;2023-07-13T14:52:14;5.93;;;3.38;;
57067;SDS011;43391;47.448;18.904;2023-07-13T14:54:42;5.68;;;3.67;;
57067;SDS011;43391;47.448;18.904;2023-07-13T14:57:12;4.65;;;3.58;;
57067;SDS011;43391;47.448;18.904;2023-07-13T14:59:39;6.78;;;3.58;;
57067;SDS011;43391;47.448;18.904;2023-07-13T15:04:47;5.75;;;3.40;;
57067;SDS011;43391;47.448;18.904;2023-07-13T15:07:13;4.05;;;3.53;;
57067;SDS011;43391;47.448;18.904;2023-07-13T15:09:40;5.03;;;3.85;;
57067;SDS011;43391;47.448;18.904;2023-07-13T15:12:06;5.13;;;3.50;;
57067;SDS011;43391;47.448;18.904;2023-07-13T15:14:32;5.22;;;3.40;;
57067;SDS011;43391;47.448;18.904;2023-07-13T15:16:58;5.68;;;3.83;;
57067;SDS011;43391;47.448;18.904;2023-07-13T15:19:24;5.15;;;3.83;;
57067;SDS011;43391;47.448;18.904;2023-07-13T15:21:51;8.10;;;3.70;;
57067;SDS011;43391;47.448;18.904;2023-07-13T15:24:19;7.57;;;3.55;;